sensor_id;sensor_type;location;lat;lon;timestamp;P1;durP1;ratioP1;P2;durP2;ratioP2
69636;SDS011;56860;51.144;16.954;2023-12-04T00:00:38;22.9;;;38.4;;
69636;SDS011;56860;51.144;16.954;2023-12-04T00:01:42;22.9;;;38.4;;
69636;SDS011;56860;51.144;16.954;2023-12-04T00:02:38;22.6;;;40.4;;
69636;SDS011;56860;51.144;16.954;2023-12-04T00:03:39;22.6;;;40.4;;
69636;SDS011;56860;51.144;16.954;2023-12-04T00:04:39;22.6;;;40.4;;
69636;SDS011;56860;51.144;16.954;2023-12-04T00:05:41;23.5;;;40.7;;
69636;SDS011;56860;51.144;16.954;2023-12-04T00:06:40;23.5;;;40.7;;
69636;SDS011;56860;51.144;16.954;2023-12-04T00:07:39;23.5;;;40.7;;
69636;SDS011;56860;51.144;16.954;2023-12-04T00:08:39;23.3;;;40.9;;
69636;SDS011;56860;51.144;16.954;2023-12-04T00:09:39;23.3;;;40.9;;
69636;SDS011;56860;51.144;16.954;2023-12-04T00:10:39;23.3;;;40.9;;
69636;SDS011;56860;51.144;16.954;2023-12-04T00:11:39;24.2;;;43.6;;
69636;SDS011;56860;51.144;16.954;2023-12-04T00:12:39;24.2;;;43.6;;
69636;SDS011;56860;51.144;16.954;2023-12-04T00:13:39;24.2;;;43.6;;
69636;SDS011;56860;51.144;16.954;2023-12-04T00:14:39;21.8;;;35.0;;
69636;SDS011;56860;51.144;16.954;2023-12-04T00:15:40;21.8;;;35.0;;
69636;SDS011;56860;51.144;16.954;2023-12-04T00:16:40;21.8;;;35.0;;
69636;SDS011;56860;51.144;16.954;2023-12-04T00:17:40;22.2;;;38.2;;
69636;SDS011;56860;51.144;16.954;2023-12-04T00:18:40;22.2;;;38.2;;
69636;SDS011;56860;51.144;16.954;2023-12-04T00:19:40;22.2;;;38.2;;
69636;SDS011;56860;51.144;16.954;2023-12-04T00:20:40;21.6;;;35.0;;
69636;SDS011;56860;51.144;16.954;2023-12-04T00:21:40;21.6;;;35.0;;
69636;SDS011;56860;51.144;16.954;2023-12-04T00:22:40;21.6;;;35.0;;
69636;SDS011;56860;51.144;16.954;2023-12-04T00:23:40;20.7;;;37.9;;
69636;SDS011;56860;51.144;16.954;2023-12-04T00:24:40;20.7;;;37.9;;
69636;SDS011;56860;51.144;16.954;2023-12-04T00:25:40;20.7;;;37.9;;
69636;SDS011;56860;51.144;16.954;2023-12-04T00:26:40;22.2;;;40.6;;
69636;SDS011;56860;51.144;16.954;2023-12-04T00:27:40;22.2;;;40.6;;
69636;SDS011;56860;51.144;16.954;2023-12-04T00:28:40;22.2;;;40.6;;
69636;SDS011;56860;51.144;16.954;2023-12-04T00:29:40;21.7;;;36.4;;
69636;SDS011;56860;51.144;16.954;2023-12-04T00:30:40;21.7;;;36.4;;
69636;SDS011;56860;51.144;16.954;2023-12-04T00:31:40;21.7;;;36.4;;
69636;SDS011;56860;51.144;16.954;2023-12-04T00:32:40;22.0;;;38.6;;
69636;SDS011;56860;51.144;16.954;2023-12-04T00:33:40;22.0;;;38.6;;
69636;SDS011;56860;51.144;16.954;2023-12-04T00:34:40;22.0;;;38.6;;
69636;SDS011;56860;51.144;16.954;2023-12-04T00:35:40;22.2;;;42.3;;
69636;SDS011;56860;51.144;16.954;2023-12-04T00:36:40;22.2;;;42.3;;
69636;SDS011;56860;51.144;16.954;2023-12-04T00:37:40;22.2;;;42.3;;
69636;SDS011;56860;51.144;16.954;2023-12-04T00:38:40;21.1;;;39.0;;
69636;SDS011;56860;51.144;16.954;2023-12-04T00:39:40;21.1;;;39.0;;
69636;SDS011;56860;51.144;16.954;2023-12-04T00:40:40;21.1;;;39.0;;
69636;SDS011;56860;51.144;16.954;2023-12-04T00:41:40;22.2;;;38.1;;
69636;SDS011;56860;51.144;16.954;2023-12-04T00:42:40;22.2;;;38.1;;
69636;SDS011;56860;51.144;16.954;2023-12-04T00:43:40;22.2;;;38.1;;
69636;SDS011;56860;51.144;16.954;2023-12-04T00:44:40;19.3;;;36.3;;
69636;SDS011;56860;51.144;16.954;2023-12-04T00:45:40;19.3;;;36.3;;
69636;SDS011;56860;51.144;16.954;2023-12-04T00:46:40;19.3;;;36.3;;
69636;SDS011;56860;51.144;16.954;2023-12-04T00:47:40;20.7;;;39.2;;
69636;SDS011;56860;51.144;16.954;2023-12-04T00:48:40;20.7;;;39.2;;
69636;SDS011;56860;51.144;16.954;2023-12-04T00:49:40;20.7;;;39.2;;
69636;SDS011;56860;51.144;16.954;2023-12-04T00:50:40;21.4;;;35.7;;
69636;SDS011;56860;51.144;16.954;2023-12-04T00:51:40;21.4;;;35.7;;
69636;SDS011;56860;51.144;16.954;2023-12-04T00:52:40;21.4;;;35.7;;
69636;SDS011;56860;51.144;16.954;2023-12-04T00:53:40;21.8;;;31.4;;
69636;SDS011;56860;51.144;16.954;2023-12-04T00:54:40;21.8;;;31.4;;
69636;SDS011;56860;51.144;16.954;2023-12-04T00:55:40;21.8;;;31.4;;
69636;SDS011;56860;51.144;16.954;2023-12-04T00:56:40;21.0;;;36.4;;
69636;SDS011;56860;51.144;16.954;2023-12-04T00:57:40;21.0;;;36.4;;
69636;SDS011;56860;51.144;16.954;2023-12-04T00:58:40;21.0;;;36.4;;
69636;SDS011;56860;51.144;16.954;2023-12-04T00:59:40;20.5;;;34.4;;
69636;SDS011;56860;51.144;16.954;2023-12-04T01:00:40;20.5;;;34.4;;
69636;SDS011;56860;51.144;16.954;2023-12-04T01:01:40;20.5;;;34.4;;
69636;SDS011;56860;51.144;16.954;2023-12-04T01:02:40;21.3;;;33.8;;
69636;SDS011;56860;51.144;16.954;2023-12-04T01:03:40;21.3;;;33.8;;
69636;SDS011;56860;51.144;16.954;2023-12-04T01:04:40;21.3;;;33.8;;
69636;SDS011;56860;51.144;16.954;2023-12-04T01:05:40;20.1;;;32.3;;
69636;SDS011;56860;51.144;16.954;2023-12-04T01:06:40;20.1;;;32.3;;
69636;SDS011;56860;51.144;16.954;2023-12-04T01:07:40;20.1;;;32.3;;
69636;SDS011;56860;51.144;16.954;2023-12-04T01:08:40;19.9;;;33.9;;
69636;SDS011;56860;51.144;16.954;2023-12-04T01:09:41;19.9;;;33.9;;
69636;SDS011;56860;51.144;16.954;2023-12-04T01:10:40;19.9;;;33.9;;
69636;SDS011;56860;51.144;16.954;2023-12-04T01:11:40;20.1;;;30.7;;
69636;SDS011;56860;51.144;16.954;2023-12-04T01:12:40;20.1;;;30.7;;
69636;SDS011;56860;51.144;16.954;2023-12-04T01:13:40;20.1;;;30.7;;
69636;SDS011;56860;51.144;16.954;2023-12-04T01:14:40;20.0;;;34.5;;
69636;SDS011;56860;51.144;16.954;2023-12-04T01:15:41;20.0;;;34.5;;
69636;SDS011;56860;51.144;16.954;2023-12-04T01:16:41;20.0;;;34.5;;
69636;SDS011;56860;51.144;16.954;2023-12-04T01:17:41;19.2;;;33.5;;
69636;SDS011;56860;51.144;16.954;2023-12-04T01:18:41;19.2;;;33.5;;
69636;SDS011;56860;51.144;16.954;2023-12-04T01:19:41;19.2;;;33.5;;
69636;SDS011;56860;51.144;16.954;2023-12-04T01:20:41;20.2;;;33.0;;
69636;SDS011;56860;51.144;16.954;2023-12-04T01:21:41;20.2;;;33.0;;
69636;SDS011;56860;51.144;16.954;2023-12-04T01:22:41;20.2;;;33.0;;
69636;SDS011;56860;51.144;16.954;2023-12-04T01:23:41;19.5;;;32.0;;
69636;SDS011;56860;51.144;16.954;2023-12-04T01:24:41;19.5;;;32.0;;
69636;SDS011;56860;51.144;16.954;2023-12-04T01:25:41;19.5;;;32.0;;
69636;SDS011;56860;51.144;16.954;2023-12-04T01:26:41;20.1;;;34.2;;
69636;SDS011;56860;51.144;16.954;2023-12-04T01:27:41;20.1;;;34.2;;
69636;SDS011;56860;51.144;16.954;2023-12-04T01:28:41;20.1;;;34.2;;
69636;SDS011;56860;51.144;16.954;2023-12-04T01:29:41;20.3;;;32.6;;
69636;SDS011;56860;51.144;16.954;2023-12-04T01:30:41;20.3;;;32.6;;
69636;SDS011;56860;51.144;16.954;2023-12-04T01:31:41;20.3;;;32.6;;
69636;SDS011;56860;51.144;16.954;2023-12-04T01:32:41;21.1;;;36.8;;
69636;SDS011;56860;51.144;16.954;2023-12-04T01:33:41;21.1;;;36.8;;
69636;SDS011;56860;51.144;16.954;2023-12-04T01:34:41;21.1;;;36.8;;
69636;SDS011;56860;51.144;16.954;2023-12-04T01:35:41;21.4;;;31.7;;
69636;SDS011;56860;51.144;16.954;2023-12-04T01:36:41;21.4;;;31.7;;
69636;SDS011;56860;51.144;16.954;2023-12-04T01:37:41;21.4;;;31.7;;
69636;SDS011;56860;51.144;16.954;2023-12-04T01:38:41;22.1;;;32.5;;
69636;SDS011;56860;51.144;16.954;2023-12-04T01:39:41;22.1;;;32.5;;
69636;SDS011;56860;51.144;16.954;2023-12-04T01:40:41;22.1;;;32.5;;
69636;SDS011;56860;51.144;16.954;2023-12-04T01:41:41;20.2;;;33.8;;
69636;SDS011;56860;51.144;16.954;2023-12-04T01:42:42;20.2;;;33.8;;
69636;SDS011;56860;51.144;16.954;2023-12-04T01:43:41;20.2;;;33.8;;
69636;SDS011;56860;51.144;16.954;2023-12-04T01:44:41;20.9;;;33.6;;
69636;SDS011;56860;51.144;16.954;2023-12-04T01:45:41;20.9;;;33.6;;
69636;SDS011;56860;51.144;16.954;2023-12-04T01:46:41;20.9;;;33.6;;
69636;SDS011;56860;51.144;16.954;2023-12-04T01:47:41;21.4;;;36.1;;
69636;SDS011;56860;51.144;16.954;2023-12-04T01:48:41;21.4;;;36.1;;
69636;SDS011;56860;51.144;16.954;2023-12-04T01:49:41;21.4;;;36.1;;
69636;SDS011;56860;51.144;16.954;2023-12-04T01:50:41;21.6;;;36.2;;
69636;SDS011;56860;51.144;16.954;2023-12-04T01:51:42;20.8;;;34.5;;
69636;SDS011;56860;51.144;16.954;2023-12-04T01:52:41;20.8;;;34.5;;
69636;SDS011;56860;51.144;16.954;2023-12-04T01:53:41;19.8;;;36.3;;
69636;SDS011;56860;51.144;16.954;2023-12-04T01:54:41;20.0;;;34.5;;
69636;SDS011;56860;51.144;16.954;2023-12-04T01:55:41;20.0;;;34.5;;
69636;SDS011;56860;51.144;16.954;2023-12-04T01:56:41;20.8;;;35.1;;
69636;SDS011;56860;51.144;16.954;2023-12-04T01:57:41;20.2;;;33.3;;
69636;SDS011;56860;51.144;16.954;2023-12-04T01:58:41;20.2;;;33.3;;
69636;SDS011;56860;51.144;16.954;2023-12-04T01:59:41;20.4;;;31.3;;
69636;SDS011;56860;51.144;16.954;2023-12-04T02:00:41;20.1;;;32.2;;
69636;SDS011;56860;51.144;16.954;2023-12-04T02:01:42;20.1;;;32.2;;
69636;SDS011;56860;51.144;16.954;2023-12-04T02:02:42;20.7;;;34.4;;
69636;SDS011;56860;51.144;16.954;2023-12-04T02:03:42;20.5;;;33.4;;
69636;SDS011;56860;51.144;16.954;2023-12-04T02:04:42;20.5;;;33.4;;
69636;SDS011;56860;51.144;16.954;2023-12-04T02:05:43;20.6;;;32.9;;
69636;SDS011;56860;51.144;16.954;2023-12-04T02:06:42;20.7;;;32.8;;
69636;SDS011;56860;51.144;16.954;2023-12-04T02:07:42;20.7;;;32.8;;
69636;SDS011;56860;51.144;16.954;2023-12-04T02:08:42;20.1;;;32.6;;
69636;SDS011;56860;51.144;16.954;2023-12-04T02:09:42;19.8;;;31.9;;
69636;SDS011;56860;51.144;16.954;2023-12-04T02:10:42;19.8;;;31.9;;
69636;SDS011;56860;51.144;16.954;2023-12-04T02:11:42;17.5;;;23.7;;
69636;SDS011;56860;51.144;16.954;2023-12-04T02:12:42;20.4;;;34.2;;
69636;SDS011;56860;51.144;16.954;2023-12-04T02:13:42;20.4;;;34.2;;
69636;SDS011;56860;51.144;16.954;2023-12-04T02:14:42;16.6;;;23.3;;
69636;SDS011;56860;51.144;16.954;2023-12-04T02:15:42;20.3;;;33.7;;
69636;SDS011;56860;51.144;16.954;2023-12-04T02:16:42;20.3;;;33.7;;
69636;SDS011;56860;51.144;16.954;2023-12-04T02:17:43;20.3;;;33.7;;
69636;SDS011;56860;51.144;16.954;2023-12-04T02:18:42;20.6;;;31.7;;
69636;SDS011;56860;51.144;16.954;2023-12-04T02:19:42;20.6;;;31.7;;
69636;SDS011;56860;51.144;16.954;2023-12-04T02:20:42;20.6;;;31.7;;
69636;SDS011;56860;51.144;16.954;2023-12-04T02:21:42;21.4;;;35.9;;
69636;SDS011;56860;51.144;16.954;2023-12-04T02:22:42;21.4;;;35.9;;
69636;SDS011;56860;51.144;16.954;2023-12-04T02:23:42;21.4;;;35.9;;
69636;SDS011;56860;51.144;16.954;2023-12-04T02:24:42;20.7;;;33.6;;
69636;SDS011;56860;51.144;16.954;2023-12-04T02:25:42;20.7;;;33.6;;
69636;SDS011;56860;51.144;16.954;2023-12-04T02:26:44;20.7;;;33.6;;
69636;SDS011;56860;51.144;16.954;2023-12-04T02:27:44;20.3;;;37.1;;
69636;SDS011;56860;51.144;16.954;2023-12-04T02:28:42;20.3;;;37.1;;
69636;SDS011;56860;51.144;16.954;2023-12-04T02:29:44;20.3;;;37.1;;
69636;SDS011;56860;51.144;16.954;2023-12-04T02:30:43;19.7;;;32.2;;
69636;SDS011;56860;51.144;16.954;2023-12-04T02:31:42;19.7;;;32.2;;
69636;SDS011;56860;51.144;16.954;2023-12-04T02:32:44;19.7;;;32.2;;
69636;SDS011;56860;51.144;16.954;2023-12-04T02:35:44;20.0;;;34.0;;
69636;SDS011;56860;51.144;16.954;2023-12-04T02:36:42;20.4;;;32.1;;
69636;SDS011;56860;51.144;16.954;2023-12-04T02:37:42;20.4;;;32.1;;
69636;SDS011;56860;51.144;16.954;2023-12-04T02:38:42;20.4;;;32.1;;
69636;SDS011;56860;51.144;16.954;2023-12-04T02:39:42;20.0;;;32.9;;
69636;SDS011;56860;51.144;16.954;2023-12-04T02:40:42;20.0;;;32.9;;
69636;SDS011;56860;51.144;16.954;2023-12-04T02:41:42;20.0;;;32.9;;
69636;SDS011;56860;51.144;16.954;2023-12-04T02:42:42;20.7;;;31.3;;
69636;SDS011;56860;51.144;16.954;2023-12-04T02:43:42;20.7;;;31.3;;
69636;SDS011;56860;51.144;16.954;2023-12-04T02:44:42;20.7;;;31.3;;
69636;SDS011;56860;51.144;16.954;2023-12-04T02:45:42;21.0;;;35.0;;
69636;SDS011;56860;51.144;16.954;2023-12-04T02:46:42;21.0;;;35.0;;
69636;SDS011;56860;51.144;16.954;2023-12-04T02:47:42;21.0;;;35.0;;
69636;SDS011;56860;51.144;16.954;2023-12-04T02:48:42;19.7;;;31.0;;
69636;SDS011;56860;51.144;16.954;2023-12-04T02:49:43;19.7;;;31.0;;
69636;SDS011;56860;51.144;16.954;2023-12-04T02:50:43;19.7;;;31.0;;
69636;SDS011;56860;51.144;16.954;2023-12-04T02:51:43;20.1;;;31.2;;
69636;SDS011;56860;51.144;16.954;2023-12-04T02:52:43;20.1;;;31.2;;
69636;SDS011;56860;51.144;16.954;2023-12-04T02:53:43;20.1;;;31.2;;
69636;SDS011;56860;51.144;16.954;2023-12-04T02:54:43;20.2;;;32.9;;
69636;SDS011;56860;51.144;16.954;2023-12-04T02:55:43;20.2;;;32.9;;
69636;SDS011;56860;51.144;16.954;2023-12-04T02:56:43;20.2;;;32.9;;
69636;SDS011;56860;51.144;16.954;2023-12-04T02:57:43;20.2;;;34.2;;
69636;SDS011;56860;51.144;16.954;2023-12-04T02:58:43;20.2;;;34.2;;
69636;SDS011;56860;51.144;16.954;2023-12-04T02:59:43;20.2;;;34.2;;
69636;SDS011;56860;51.144;16.954;2023-12-04T03:00:43;22.7;;;36.7;;
69636;SDS011;56860;51.144;16.954;2023-12-04T03:01:43;22.7;;;36.7;;
69636;SDS011;56860;51.144;16.954;2023-12-04T03:02:43;22.7;;;36.7;;
69636;SDS011;56860;51.144;16.954;2023-12-04T03:03:43;21.4;;;30.3;;
69636;SDS011;56860;51.144;16.954;2023-12-04T03:04:43;21.4;;;30.3;;
69636;SDS011;56860;51.144;16.954;2023-12-04T03:05:43;21.4;;;30.3;;
69636;SDS011;56860;51.144;16.954;2023-12-04T03:06:43;19.9;;;33.8;;
69636;SDS011;56860;51.144;16.954;2023-12-04T03:07:44;19.9;;;33.8;;
69636;SDS011;56860;51.144;16.954;2023-12-04T03:08:43;19.9;;;33.8;;
69636;SDS011;56860;51.144;16.954;2023-12-04T03:09:44;20.0;;;31.0;;
69636;SDS011;56860;51.144;16.954;2023-12-04T03:10:43;20.0;;;31.0;;
69636;SDS011;56860;51.144;16.954;2023-12-04T03:11:43;20.0;;;31.0;;
69636;SDS011;56860;51.144;16.954;2023-12-04T03:12:43;20.7;;;34.4;;
69636;SDS011;56860;51.144;16.954;2023-12-04T03:13:43;20.7;;;34.4;;
69636;SDS011;56860;51.144;16.954;2023-12-04T03:14:43;20.7;;;34.4;;
69636;SDS011;56860;51.144;16.954;2023-12-04T03:15:43;20.6;;;38.8;;
69636;SDS011;56860;51.144;16.954;2023-12-04T03:16:43;20.6;;;38.8;;
69636;SDS011;56860;51.144;16.954;2023-12-04T03:17:43;20.6;;;38.8;;
69636;SDS011;56860;51.144;16.954;2023-12-04T03:18:43;20.6;;;31.2;;
69636;SDS011;56860;51.144;16.954;2023-12-04T03:19:43;20.6;;;31.2;;
69636;SDS011;56860;51.144;16.954;2023-12-04T03:20:43;20.6;;;31.2;;
69636;SDS011;56860;51.144;16.954;2023-12-04T03:21:43;22.6;;;35.0;;
69636;SDS011;56860;51.144;16.954;2023-12-04T03:22:45;21.6;;;33.3;;
69636;SDS011;56860;51.144;16.954;2023-12-04T03:23:43;21.6;;;33.3;;
69636;SDS011;56860;51.144;16.954;2023-12-04T03:24:43;22.2;;;36.4;;
69636;SDS011;56860;51.144;16.954;2023-12-04T03:25:43;21.4;;;35.5;;
69636;SDS011;56860;51.144;16.954;2023-12-04T03:26:43;21.4;;;35.5;;
69636;SDS011;56860;51.144;16.954;2023-12-04T03:27:43;20.6;;;33.2;;
69636;SDS011;56860;51.144;16.954;2023-12-04T03:28:43;20.4;;;32.4;;
69636;SDS011;56860;51.144;16.954;2023-12-04T03:29:43;20.4;;;32.4;;
69636;SDS011;56860;51.144;16.954;2023-12-04T03:30:43;20.2;;;30.8;;
69636;SDS011;56860;51.144;16.954;2023-12-04T03:31:43;19.8;;;30.2;;
69636;SDS011;56860;51.144;16.954;2023-12-04T03:32:43;19.8;;;30.2;;
69636;SDS011;56860;51.144;16.954;2023-12-04T03:33:43;19.3;;;31.8;;
69636;SDS011;56860;51.144;16.954;2023-12-04T03:34:43;19.4;;;34.4;;
69636;SDS011;56860;51.144;16.954;2023-12-04T03:35:43;19.4;;;34.4;;
69636;SDS011;56860;51.144;16.954;2023-12-04T03:36:43;19.7;;;29.6;;
69636;SDS011;56860;51.144;16.954;2023-12-04T03:37:43;19.3;;;28.9;;
69636;SDS011;56860;51.144;16.954;2023-12-04T03:38:43;19.3;;;28.9;;
69636;SDS011;56860;51.144;16.954;2023-12-04T03:39:43;19.8;;;36.9;;
69636;SDS011;56860;51.144;16.954;2023-12-04T03:40:43;19.3;;;35.6;;
69636;SDS011;56860;51.144;16.954;2023-12-04T03:41:43;19.3;;;35.6;;
69636;SDS011;56860;51.144;16.954;2023-12-04T03:42:43;16.0;;;34.7;;
69636;SDS011;56860;51.144;16.954;2023-12-04T03:43:43;21.0;;;31.9;;
69636;SDS011;56860;51.144;16.954;2023-12-04T03:44:43;21.0;;;31.9;;
69636;SDS011;56860;51.144;16.954;2023-12-04T03:45:43;16.2;;;27.3;;
69636;SDS011;56860;51.144;16.954;2023-12-04T03:46:43;20.4;;;34.1;;
69636;SDS011;56860;51.144;16.954;2023-12-04T03:47:43;20.4;;;34.1;;
69636;SDS011;56860;51.144;16.954;2023-12-04T03:48:43;20.4;;;34.1;;
69636;SDS011;56860;51.144;16.954;2023-12-04T03:49:43;20.9;;;36.0;;
69636;SDS011;56860;51.144;16.954;2023-12-04T03:50:43;20.9;;;36.0;;
69636;SDS011;56860;51.144;16.954;2023-12-04T03:51:43;20.9;;;36.0;;
69636;SDS011;56860;51.144;16.954;2023-12-04T03:52:43;20.5;;;31.7;;
69636;SDS011;56860;51.144;16.954;2023-12-04T03:53:43;20.5;;;31.7;;
69636;SDS011;56860;51.144;16.954;2023-12-04T03:54:43;20.5;;;31.7;;
69636;SDS011;56860;51.144;16.954;2023-12-04T03:55:43;19.9;;;31.1;;
69636;SDS011;56860;51.144;16.954;2023-12-04T03:56:43;19.9;;;31.1;;
69636;SDS011;56860;51.144;16.954;2023-12-04T03:57:43;19.9;;;31.1;;
69636;SDS011;56860;51.144;16.954;2023-12-04T03:58:43;20.6;;;30.7;;
69636;SDS011;56860;51.144;16.954;2023-12-04T03:59:43;20.6;;;30.7;;
69636;SDS011;56860;51.144;16.954;2023-12-04T04:00:43;20.6;;;30.7;;
69636;SDS011;56860;51.144;16.954;2023-12-04T04:01:43;19.6;;;28.5;;
69636;SDS011;56860;51.144;16.954;2023-12-04T04:02:43;19.6;;;28.5;;
69636;SDS011;56860;51.144;16.954;2023-12-04T04:03:43;19.6;;;28.5;;
69636;SDS011;56860;51.144;16.954;2023-12-04T04:04:43;19.5;;;29.9;;
69636;SDS011;56860;51.144;16.954;2023-12-04T04:05:43;19.5;;;29.9;;
69636;SDS011;56860;51.144;16.954;2023-12-04T04:06:43;19.5;;;29.9;;
69636;SDS011;56860;51.144;16.954;2023-12-04T04:07:43;19.0;;;32.8;;
69636;SDS011;56860;51.144;16.954;2023-12-04T04:08:43;19.0;;;32.8;;
69636;SDS011;56860;51.144;16.954;2023-12-04T04:09:43;19.0;;;32.8;;
69636;SDS011;56860;51.144;16.954;2023-12-04T04:10:43;18.6;;;27.6;;
69636;SDS011;56860;51.144;16.954;2023-12-04T04:11:43;18.6;;;27.6;;
69636;SDS011;56860;51.144;16.954;2023-12-04T04:12:44;18.6;;;27.6;;
69636;SDS011;56860;51.144;16.954;2023-12-04T04:13:43;18.5;;;31.0;;
69636;SDS011;56860;51.144;16.954;2023-12-04T04:14:43;18.5;;;31.0;;
69636;SDS011;56860;51.144;16.954;2023-12-04T04:15:43;18.5;;;31.0;;
69636;SDS011;56860;51.144;16.954;2023-12-04T04:16:43;19.6;;;33.5;;
69636;SDS011;56860;51.144;16.954;2023-12-04T04:17:43;19.6;;;33.5;;
69636;SDS011;56860;51.144;16.954;2023-12-04T04:18:43;19.6;;;33.5;;
69636;SDS011;56860;51.144;16.954;2023-12-04T04:19:43;24.7;;;40.3;;
69636;SDS011;56860;51.144;16.954;2023-12-04T04:20:43;24.7;;;40.3;;
69636;SDS011;56860;51.144;16.954;2023-12-04T04:21:43;24.7;;;40.3;;
69636;SDS011;56860;51.144;16.954;2023-12-04T04:22:43;22.1;;;36.1;;
69636;SDS011;56860;51.144;16.954;2023-12-04T04:23:43;22.1;;;36.1;;
69636;SDS011;56860;51.144;16.954;2023-12-04T04:24:43;22.1;;;36.1;;
69636;SDS011;56860;51.144;16.954;2023-12-04T04:25:43;24.4;;;41.9;;
69636;SDS011;56860;51.144;16.954;2023-12-04T04:26:43;24.4;;;41.9;;
69636;SDS011;56860;51.144;16.954;2023-12-04T04:27:43;24.4;;;41.9;;
69636;SDS011;56860;51.144;16.954;2023-12-04T04:28:43;24.0;;;38.5;;
69636;SDS011;56860;51.144;16.954;2023-12-04T04:29:43;24.0;;;38.5;;
69636;SDS011;56860;51.144;16.954;2023-12-04T04:30:43;24.0;;;38.5;;
69636;SDS011;56860;51.144;16.954;2023-12-04T04:31:43;24.5;;;42.1;;
69636;SDS011;56860;51.144;16.954;2023-12-04T04:32:43;24.5;;;42.1;;
69636;SDS011;56860;51.144;16.954;2023-12-04T04:33:43;24.5;;;42.1;;
69636;SDS011;56860;51.144;16.954;2023-12-04T04:34:43;24.6;;;47.2;;
69636;SDS011;56860;51.144;16.954;2023-12-04T04:35:44;24.6;;;47.2;;
69636;SDS011;56860;51.144;16.954;2023-12-04T04:36:43;24.6;;;47.2;;
69636;SDS011;56860;51.144;16.954;2023-12-04T04:37:43;24.5;;;41.8;;
69636;SDS011;56860;51.144;16.954;2023-12-04T04:38:43;24.5;;;41.8;;
69636;SDS011;56860;51.144;16.954;2023-12-04T04:39:43;24.5;;;41.8;;
69636;SDS011;56860;51.144;16.954;2023-12-04T04:40:43;23.5;;;42.9;;
69636;SDS011;56860;51.144;16.954;2023-12-04T04:41:43;23.5;;;42.9;;
69636;SDS011;56860;51.144;16.954;2023-12-04T04:42:43;23.5;;;42.9;;
69636;SDS011;56860;51.144;16.954;2023-12-04T04:43:43;22.6;;;39.8;;
69636;SDS011;56860;51.144;16.954;2023-12-04T04:44:43;22.6;;;39.8;;
69636;SDS011;56860;51.144;16.954;2023-12-04T04:45:43;22.6;;;39.8;;
69636;SDS011;56860;51.144;16.954;2023-12-04T04:46:43;23.0;;;35.8;;
69636;SDS011;56860;51.144;16.954;2023-12-04T04:47:43;23.0;;;35.8;;
69636;SDS011;56860;51.144;16.954;2023-12-04T04:48:43;23.0;;;35.8;;
69636;SDS011;56860;51.144;16.954;2023-12-04T04:49:43;23.1;;;38.1;;
69636;SDS011;56860;51.144;16.954;2023-12-04T04:50:43;23.1;;;38.1;;
69636;SDS011;56860;51.144;16.954;2023-12-04T04:51:43;23.1;;;38.1;;
69636;SDS011;56860;51.144;16.954;2023-12-04T04:52:44;22.1;;;33.8;;
69636;SDS011;56860;51.144;16.954;2023-12-04T04:53:43;22.1;;;33.8;;
69636;SDS011;56860;51.144;16.954;2023-12-04T04:54:43;22.1;;;33.8;;
69636;SDS011;56860;51.144;16.954;2023-12-04T04:55:43;23.8;;;40.5;;
69636;SDS011;56860;51.144;16.954;2023-12-04T04:56:43;23.8;;;40.5;;
69636;SDS011;56860;51.144;16.954;2023-12-04T04:57:43;23.8;;;40.5;;
69636;SDS011;56860;51.144;16.954;2023-12-04T04:58:43;24.2;;;38.2;;
69636;SDS011;56860;51.144;16.954;2023-12-04T04:59:43;24.2;;;38.2;;
69636;SDS011;56860;51.144;16.954;2023-12-04T05:00:43;24.2;;;38.2;;
69636;SDS011;56860;51.144;16.954;2023-12-04T05:01:43;23.9;;;43.9;;
69636;SDS011;56860;51.144;16.954;2023-12-04T05:02:43;23.9;;;43.9;;
69636;SDS011;56860;51.144;16.954;2023-12-04T05:03:43;23.9;;;43.9;;
69636;SDS011;56860;51.144;16.954;2023-12-04T05:04:43;23.3;;;35.7;;
69636;SDS011;56860;51.144;16.954;2023-12-04T05:05:43;23.3;;;35.7;;
69636;SDS011;56860;51.144;16.954;2023-12-04T05:06:43;23.3;;;35.7;;
69636;SDS011;56860;51.144;16.954;2023-12-04T05:07:43;23.8;;;38.8;;
69636;SDS011;56860;51.144;16.954;2023-12-04T05:08:43;23.8;;;38.8;;
69636;SDS011;56860;51.144;16.954;2023-12-04T05:09:43;23.8;;;38.8;;
69636;SDS011;56860;51.144;16.954;2023-12-04T05:10:43;25.1;;;39.6;;
69636;SDS011;56860;51.144;16.954;2023-12-04T05:11:43;25.1;;;39.6;;
69636;SDS011;56860;51.144;16.954;2023-12-04T05:12:43;25.1;;;39.6;;
69636;SDS011;56860;51.144;16.954;2023-12-04T05:13:44;23.7;;;37.8;;
69636;SDS011;56860;51.144;16.954;2023-12-04T05:14:43;23.7;;;37.8;;
69636;SDS011;56860;51.144;16.954;2023-12-04T05:15:43;23.7;;;37.8;;
69636;SDS011;56860;51.144;16.954;2023-12-04T05:16:43;24.0;;;38.7;;
69636;SDS011;56860;51.144;16.954;2023-12-04T05:17:43;24.0;;;38.7;;
69636;SDS011;56860;51.144;16.954;2023-12-04T05:18:43;24.0;;;38.7;;
69636;SDS011;56860;51.144;16.954;2023-12-04T05:19:43;23.9;;;38.3;;
69636;SDS011;56860;51.144;16.954;2023-12-04T05:20:43;23.9;;;38.3;;
69636;SDS011;56860;51.144;16.954;2023-12-04T05:21:43;23.9;;;38.3;;
69636;SDS011;56860;51.144;16.954;2023-12-04T05:22:44;26.2;;;43.6;;
69636;SDS011;56860;51.144;16.954;2023-12-04T05:23:43;26.2;;;43.6;;
69636;SDS011;56860;51.144;16.954;2023-12-04T05:24:43;26.2;;;43.6;;
69636;SDS011;56860;51.144;16.954;2023-12-04T05:25:43;26.7;;;43.2;;
69636;SDS011;56860;51.144;16.954;2023-12-04T05:26:43;26.7;;;43.2;;
69636;SDS011;56860;51.144;16.954;2023-12-04T05:27:43;26.7;;;43.2;;
69636;SDS011;56860;51.144;16.954;2023-12-04T05:28:43;25.0;;;39.8;;
69636;SDS011;56860;51.144;16.954;2023-12-04T05:29:43;25.0;;;39.8;;
69636;SDS011;56860;51.144;16.954;2023-12-04T05:30:43;25.0;;;39.8;;
69636;SDS011;56860;51.144;16.954;2023-12-04T05:31:43;25.0;;;44.2;;
69636;SDS011;56860;51.144;16.954;2023-12-04T05:32:43;25.0;;;44.2;;
69636;SDS011;56860;51.144;16.954;2023-12-04T05:33:43;25.0;;;44.2;;
69636;SDS011;56860;51.144;16.954;2023-12-04T05:34:43;26.0;;;45.6;;
69636;SDS011;56860;51.144;16.954;2023-12-04T05:35:43;26.0;;;45.6;;
69636;SDS011;56860;51.144;16.954;2023-12-04T05:36:43;26.0;;;45.6;;
69636;SDS011;56860;51.144;16.954;2023-12-04T05:37:43;27.6;;;49.3;;
69636;SDS011;56860;51.144;16.954;2023-12-04T05:38:43;27.6;;;49.3;;
69636;SDS011;56860;51.144;16.954;2023-12-04T05:39:43;27.6;;;49.3;;
69636;SDS011;56860;51.144;16.954;2023-12-04T05:40:44;31.4;;;57.3;;
69636;SDS011;56860;51.144;16.954;2023-12-04T05:41:43;31.4;;;57.3;;
69636;SDS011;56860;51.144;16.954;2023-12-04T05:42:43;31.4;;;57.3;;
69636;SDS011;56860;51.144;16.954;2023-12-04T05:43:44;30.0;;;50.1;;
69636;SDS011;56860;51.144;16.954;2023-12-04T05:44:43;30.0;;;50.1;;
69636;SDS011;56860;51.144;16.954;2023-12-04T05:45:43;30.0;;;50.1;;
69636;SDS011;56860;51.144;16.954;2023-12-04T05:46:43;26.5;;;49.7;;
69636;SDS011;56860;51.144;16.954;2023-12-04T05:47:43;26.5;;;49.7;;
69636;SDS011;56860;51.144;16.954;2023-12-04T05:48:43;26.5;;;49.7;;
69636;SDS011;56860;51.144;16.954;2023-12-04T05:49:43;26.1;;;43.9;;
69636;SDS011;56860;51.144;16.954;2023-12-04T05:50:43;26.1;;;43.9;;
69636;SDS011;56860;51.144;16.954;2023-12-04T05:51:44;26.1;;;43.9;;
69636;SDS011;56860;51.144;16.954;2023-12-04T05:52:43;28.5;;;47.5;;
69636;SDS011;56860;51.144;16.954;2023-12-04T05:53:43;28.5;;;47.5;;
69636;SDS011;56860;51.144;16.954;2023-12-04T05:54:43;28.5;;;47.5;;
69636;SDS011;56860;51.144;16.954;2023-12-04T05:55:43;27.5;;;50.7;;
69636;SDS011;56860;51.144;16.954;2023-12-04T05:56:43;27.5;;;50.7;;
69636;SDS011;56860;51.144;16.954;2023-12-04T05:57:44;27.5;;;50.7;;